createdAt,value
2023-05-18T00:02:11.244Z,1017.44
2023-05-18T00:12:11.445Z,1017.46
2023-05-18T00:22:11.833Z,1017.35
2023-05-18T00:32:11.814Z,1017.30
2023-05-18T00:42:11.987Z,1017.18
2023-05-18T00:52:12.212Z,1017.16
2023-05-18T01:02:12.474Z,1017.08
2023-05-18T01:12:12.636Z,1017.00
2023-05-18T01:22:12.564Z,1016.90
2023-05-18T01:32:12.862Z,1016.86
2023-05-18T01:42:13.091Z,1016.86
2023-05-18T01:52:13.105Z,1016.80
2023-05-18T02:02:13.313Z,1016.73
2023-05-18T02:12:13.536Z,1016.67
2023-05-18T02:22:13.782Z,1016.65
2023-05-18T02:32:14.027Z,1016.62
2023-05-18T02:42:14.174Z,1016.60
2023-05-18T02:52:14.448Z,1016.53
2023-05-18T03:02:14.683Z,1016.51
2023-05-18T03:12:14.866Z,1016.54
2023-05-18T03:22:15.062Z,1016.50
2023-05-18T03:32:15.276Z,1016.56
2023-05-18T03:42:15.393Z,1016.53
2023-05-18T03:52:15.576Z,1016.63
2023-05-18T04:02:15.764Z,1016.61
2023-05-18T04:12:15.929Z,1016.58
2023-05-18T04:22:16.108Z,1016.65
2023-05-18T04:32:16.300Z,1016.69
2023-05-18T04:42:16.426Z,1016.60
2023-05-18T04:52:16.608Z,1016.65
2023-05-18T05:02:16.784Z,1016.67
2023-05-18T05:12:16.951Z,1016.69
2023-05-18T05:22:17.114Z,1016.72
2023-05-18T05:32:17.262Z,1016.71
2023-05-18T05:42:17.516Z,1016.67
2023-05-18T05:52:17.686Z,1016.70
2023-05-18T06:02:17.886Z,1016.70
2023-05-18T06:12:18.023Z,1016.77
2023-05-18T06:22:18.204Z,1016.82
2023-05-18T06:32:18.395Z,1016.84
2023-05-18T06:42:18.535Z,1016.84
2023-05-18T06:52:18.733Z,1016.78
2023-05-18T07:02:19.014Z,1016.79
2023-05-18T07:12:19.178Z,1016.87
2023-05-18T07:22:19.328Z,1016.82
2023-05-18T07:32:19.471Z,1016.81
2023-05-18T07:42:19.643Z,1016.84
2023-05-18T07:52:19.819Z,1016.69
2023-05-18T08:02:20.140Z,1016.76
2023-05-18T08:12:20.194Z,1016.73
2023-05-18T08:22:20.409Z,1016.84
2023-05-18T08:32:20.654Z,1016.80
2023-05-18T08:42:20.828Z,1016.78
2023-05-18T08:52:20.988Z,1016.84
2023-05-18T09:02:21.188Z,1016.68
2023-05-18T09:12:23.579Z,1016.56
2023-05-18T09:22:21.651Z,1016.59
2023-05-18T09:32:21.780Z,1016.66
2023-05-18T09:42:24.141Z,1016.70
2023-05-18T09:52:22.207Z,1016.71
2023-05-18T10:02:22.414Z,1016.63
2023-05-18T10:12:22.542Z,1016.56
2023-05-18T10:22:22.706Z,1016.52
2023-05-18T10:32:22.900Z,1016.42
2023-05-18T10:42:23.044Z,1016.36
2023-05-18T10:52:23.212Z,1016.39
2023-05-18T11:02:23.443Z,1016.36
2023-05-18T11:12:23.601Z,1016.34
2023-05-18T11:22:23.785Z,1016.35
2023-05-18T11:32:29.752Z,1016.28
2023-05-18T11:42:25.178Z,1016.24
2023-05-18T11:52:24.350Z,1016.12
2023-05-18T12:02:24.574Z,1016.13
2023-05-18T12:12:24.736Z,1016.10
2023-05-18T12:22:24.905Z,1016.08
2023-05-18T12:32:25.126Z,1016.12
2023-05-18T12:42:25.295Z,1016.14
2023-05-18T12:52:25.465Z,1015.95
2023-05-18T13:02:25.719Z,1015.93
2023-05-18T13:12:25.850Z,1015.95
2023-05-18T13:22:26.028Z,1016.00
2023-05-18T13:32:26.382Z,1015.98
2023-05-18T13:42:26.340Z,1015.96
2023-05-18T13:52:26.508Z,1016.10
2023-05-18T14:02:26.752Z,1016.09
2023-05-18T14:12:26.912Z,1016.04
2023-05-18T14:22:27.097Z,1016.02
2023-05-18T14:32:27.305Z,1016.03
2023-05-18T14:42:27.437Z,1016.01
2023-05-18T14:52:27.598Z,1016.05
2023-05-18T15:02:27.896Z,1015.95
2023-05-18T15:12:27.870Z,1015.96
2023-05-18T15:22:28.058Z,1016.01
2023-05-18T15:32:29.943Z,1016.03
2023-05-18T15:42:28.466Z,1015.98
2023-05-18T15:52:28.680Z,1015.98
2023-05-18T16:02:28.884Z,1015.94
2023-05-18T16:12:29.065Z,1015.92
2023-05-18T16:22:29.298Z,1015.88
2023-05-18T16:32:29.601Z,1015.87
2023-05-18T16:42:29.891Z,1016.09
2023-05-18T16:52:29.914Z,1016.12
2023-05-18T17:02:30.371Z,1016.12
2023-05-18T17:12:30.462Z,1016.06
2023-05-18T17:22:30.701Z,1016.11
2023-05-18T17:32:30.999Z,1016.18
2023-05-18T17:42:31.226Z,1016.24
2023-05-18T17:52:31.329Z,1016.27
2023-05-18T18:02:31.449Z,1016.33
2023-05-18T18:12:31.545Z,1016.36
2023-05-18T18:22:33.584Z,1016.38
2023-05-18T18:32:31.839Z,1016.44
2023-05-18T18:42:31.893Z,1016.43
2023-05-18T18:52:32.076Z,1016.47
2023-05-18T19:02:33.128Z,1016.61
2023-05-18T19:12:32.572Z,1016.65
2023-05-18T19:22:32.713Z,1016.72
2023-05-18T19:32:32.876Z,1016.84
2023-05-18T19:42:33.007Z,1016.97
2023-05-18T19:52:33.184Z,1017.00
2023-05-18T20:02:33.320Z,1017.01
2023-05-18T20:12:33.480Z,1017.03
2023-05-18T20:22:33.585Z,1017.02
2023-05-18T20:32:33.713Z,1017.07
2023-05-18T20:42:33.883Z,1017.08
2023-05-18T20:52:33.837Z,1017.09
2023-05-18T21:02:33.766Z,1017.17
2023-05-18T21:12:33.926Z,1017.18
2023-05-18T21:22:33.915Z,1017.16
2023-05-18T21:32:34.190Z,1017.09
2023-05-18T21:42:34.284Z,1017.13
2023-05-18T21:52:34.525Z,1017.10
2023-05-18T22:02:34.815Z,1017.09
2023-05-18T22:12:34.873Z,1017.08
2023-05-18T22:22:35.195Z,1017.04
2023-05-18T22:32:35.320Z,1017.05
2023-05-18T22:42:35.513Z,1016.95
2023-05-18T22:52:35.466Z,1016.97
2023-05-18T23:02:35.729Z,1016.91
2023-05-18T23:12:35.989Z,1016.80
2023-05-18T23:22:36.248Z,1016.75
2023-05-18T23:32:36.641Z,1016.70
2023-05-18T23:42:36.603Z,1016.66
2023-05-18T23:52:36.911Z,1016.61
